createdAt,value
2023-05-03T00:01:12.438Z,12.30
2023-05-03T00:06:15.474Z,12.30
2023-05-03T00:11:17.338Z,12.30
2023-05-03T00:16:19.950Z,12.20
2023-05-03T00:21:21.835Z,12.10
2023-05-03T00:26:23.708Z,12.20
2023-05-03T00:31:25.717Z,12.10
2023-05-03T00:36:28.122Z,12.10
2023-05-03T00:41:29.947Z,12.10
2023-05-03T00:46:31.886Z,12.10
2023-05-03T00:51:33.864Z,12.10
2023-05-03T00:56:44.276Z,12.10
2023-05-03T01:01:53.458Z,12.10
2023-05-03T01:07:19.697Z,12.20
2023-05-03T01:12:34.854Z,12.10
2023-05-03T01:17:42.401Z,12.10
2023-05-03T01:22:52.629Z,12.10
2023-05-03T01:27:54.502Z,12.10
2023-05-03T01:33:06.901Z,12.00
2023-05-03T01:38:09.528Z,12.00
2023-05-03T01:43:12.538Z,12.00
2023-05-03T01:48:19.042Z,12.00
2023-05-03T01:53:21.148Z,12.00
2023-05-03T01:58:22.967Z,12.00
2023-05-03T02:03:25.030Z,12.00
2023-05-03T02:08:26.856Z,12.00
2023-05-03T02:13:28.754Z,12.00
2023-05-03T02:18:31.498Z,12.00
2023-05-03T02:23:34.386Z,11.90
2023-05-03T02:28:36.610Z,11.90
2023-05-03T02:33:38.496Z,11.90
2023-05-03T02:38:40.424Z,11.80
2023-05-03T02:43:42.233Z,11.80
2023-05-03T02:48:44.033Z,11.80
2023-05-03T02:53:46.005Z,11.80
2023-05-03T02:58:47.852Z,11.80
2023-05-03T03:03:50.068Z,11.80
2023-05-03T03:08:52.030Z,11.80
2023-05-03T03:13:53.942Z,11.80
2023-05-03T03:18:56.979Z,11.80
2023-05-03T03:23:58.819Z,11.80
2023-05-03T03:29:01.151Z,11.70
2023-05-03T03:34:02.998Z,11.80
2023-05-03T03:39:05.601Z,11.80
2023-05-03T03:44:07.409Z,11.70
2023-05-03T03:49:09.396Z,11.70
2023-05-03T03:54:12.346Z,11.80
2023-05-03T03:59:14.374Z,11.80
2023-05-03T04:04:17.878Z,11.70
2023-05-03T04:09:19.832Z,11.80
2023-05-03T04:14:21.774Z,11.80
2023-05-03T04:19:25.306Z,11.90
2023-05-03T04:24:30.585Z,11.90
2023-05-03T04:29:32.450Z,12.00
2023-05-03T04:34:34.358Z,12.00
2023-05-03T04:39:36.179Z,12.00
2023-05-03T04:44:37.992Z,12.10
2023-05-03T04:49:39.951Z,12.10
2023-05-03T04:54:41.752Z,12.20
2023-05-03T04:59:43.563Z,12.30
2023-05-03T05:04:45.794Z,12.40
2023-05-03T05:09:47.607Z,12.60
2023-05-03T05:14:49.392Z,12.80
2023-05-03T05:19:51.191Z,12.90
2023-05-03T05:24:52.980Z,13.10
2023-05-03T05:29:54.793Z,13.20
2023-05-03T05:34:56.758Z,13.30
2023-05-03T05:39:58.648Z,13.30
2023-05-03T05:45:01.559Z,13.30
2023-05-03T05:50:09.719Z,13.40
2023-05-03T05:55:15.794Z,13.30
2023-05-03T06:00:18.981Z,13.30
2023-05-03T06:05:21.526Z,13.30
2023-05-03T06:10:23.513Z,13.30
2023-05-03T06:15:26.057Z,13.30
2023-05-03T06:20:28.039Z,13.40
2023-05-03T06:25:29.925Z,13.50
2023-05-03T06:30:32.012Z,13.60
2023-05-03T06:35:33.886Z,13.70
2023-05-03T06:40:37.124Z,14.00
2023-05-03T06:45:42.603Z,14.50
2023-05-03T06:50:44.493Z,14.70
2023-05-03T06:55:46.639Z,14.90
2023-05-03T07:00:52.335Z,14.80
2023-05-03T07:05:54.214Z,14.80
2023-05-03T07:10:56.191Z,15.10
2023-05-03T07:15:58.238Z,15.70
2023-05-03T07:21:07.232Z,16.10
2023-05-03T07:26:10.675Z,16.00
2023-05-03T07:31:15.654Z,16.10
2023-05-03T07:36:17.541Z,16.50
2023-05-03T07:41:19.448Z,17.40
2023-05-03T07:46:21.717Z,17.70
2023-05-03T07:51:23.676Z,18.00
2023-05-03T07:56:27.580Z,17.80
2023-05-03T08:01:29.423Z,17.90
2023-05-03T08:06:31.857Z,17.70
2023-05-03T08:11:33.881Z,18.10
2023-05-03T08:16:35.894Z,18.50
2023-05-03T08:21:38.120Z,18.90
2023-05-03T08:26:41.096Z,19.30
2023-05-03T08:31:43.288Z,19.20
2023-05-03T08:36:45.216Z,19.40
2023-05-03T08:41:47.226Z,19.60
2023-05-03T08:46:52.511Z,20.00
2023-05-03T08:51:55.639Z,20.30
2023-05-03T08:56:57.636Z,20.90
2023-05-03T09:02:00.273Z,20.90
2023-05-03T09:07:12.491Z,21.00
2023-05-03T09:12:37.696Z,21.50
2023-05-03T09:17:39.653Z,21.70
2023-05-03T09:22:51.149Z,21.90
2023-05-03T09:28:02.650Z,21.50
2023-05-03T09:33:04.855Z,21.90
2023-05-03T09:38:07.217Z,22.10
2023-05-03T09:43:11.444Z,21.80
2023-05-03T09:48:13.627Z,22.00
2023-05-03T09:53:18.775Z,22.10
2023-05-03T09:58:24.099Z,22.90
2023-05-03T10:03:46.760Z,23.00
2023-05-03T10:09:16.537Z,22.50
2023-05-03T10:14:19.500Z,22.40
2023-05-03T10:19:29.629Z,22.10
2023-05-03T10:24:32.477Z,22.20
2023-05-03T10:29:37.546Z,21.90
2023-05-03T10:34:43.431Z,22.00
2023-05-03T10:39:46.650Z,22.50
2023-05-03T10:44:55.356Z,22.60
2023-05-03T10:50:15.534Z,21.80
2023-05-03T10:55:20.767Z,21.30
2023-05-03T11:00:39.147Z,21.20
2023-05-03T11:05:41.060Z,21.10
2023-05-03T11:10:44.018Z,20.90
2023-05-03T11:15:48.229Z,20.50
2023-05-03T11:20:50.526Z,20.00
2023-05-03T11:25:52.574Z,19.60
2023-05-03T11:30:54.838Z,19.30
2023-05-03T11:35:57.085Z,19.20
2023-05-03T11:41:00.019Z,19.10
2023-05-03T11:46:01.977Z,18.90
2023-05-03T11:51:08.497Z,18.70
2023-05-03T11:56:18.863Z,18.90
2023-05-03T12:01:24.139Z,19.00
2023-05-03T12:06:27.861Z,18.60
2023-05-03T12:11:33.480Z,18.50
2023-05-03T12:16:50.758Z,18.20
2023-05-03T12:22:18.016Z,18.10
2023-05-03T12:27:19.538Z,18.00
2023-05-03T12:32:23.166Z,18.00
2023-05-03T12:37:27.960Z,18.00
2023-05-03T12:42:32.252Z,18.20
2023-05-03T12:47:37.393Z,18.10
2023-05-03T12:52:39.744Z,18.10
2023-05-03T12:57:46.143Z,18.10
2023-05-03T13:07:56.826Z,17.70
2023-05-03T13:12:59.344Z,17.60
2023-05-03T13:18:03.169Z,17.40
2023-05-03T13:23:05.533Z,17.30
2023-05-03T13:28:07.688Z,17.20
2023-05-03T13:33:09.806Z,17.10
2023-05-03T13:38:11.732Z,17.20
2023-05-03T13:43:13.666Z,17.20
2023-05-03T13:48:19.021Z,17.10
2023-05-03T13:53:21.445Z,17.20
2023-05-03T13:58:23.283Z,17.10
2023-05-03T14:03:25.398Z,17.20
2023-05-03T14:08:27.496Z,17.30
2023-05-03T14:13:37.266Z,17.30
2023-05-03T14:18:47.368Z,17.30
2023-05-03T14:23:52.213Z,17.40
2023-05-03T14:28:54.266Z,17.50
2023-05-03T14:33:56.283Z,17.60
2023-05-03T14:38:58.094Z,17.60
2023-05-03T14:44:00.046Z,17.50
2023-05-03T14:49:01.923Z,17.50
2023-05-03T14:54:05.049Z,17.30
2023-05-03T14:59:07.373Z,17.30
2023-05-03T15:04:12.193Z,17.40
2023-05-03T15:09:14.129Z,17.40
2023-05-03T15:14:18.571Z,17.30
2023-05-03T15:19:21.274Z,17.30
2023-05-03T15:24:23.561Z,17.40
2023-05-03T15:29:25.368Z,17.40
2023-05-03T15:34:27.238Z,17.40
2023-05-03T15:39:29.161Z,17.40
2023-05-03T15:44:31.081Z,17.30
2023-05-03T15:49:34.108Z,17.20
2023-05-03T15:54:35.987Z,17.10
2023-05-03T15:59:38.007Z,17.10
2023-05-03T16:04:39.928Z,17.00
2023-05-03T16:09:42.571Z,16.90
2023-05-03T16:14:44.847Z,16.80
2023-05-03T16:19:46.685Z,16.80
2023-05-03T16:24:48.714Z,16.70
2023-05-03T16:29:51.595Z,16.60
2023-05-03T16:34:53.800Z,16.50
2023-05-03T16:39:55.676Z,16.40
2023-05-03T16:45:04.305Z,16.40
2023-05-03T16:50:32.063Z,16.30
2023-05-03T16:55:35.280Z,16.20
2023-05-03T17:00:37.287Z,16.10
2023-05-03T17:05:40.260Z,15.90
2023-05-03T17:10:44.612Z,15.80
2023-05-03T17:15:46.637Z,15.60
2023-05-03T17:20:48.486Z,15.50
2023-05-03T17:25:57.032Z,15.40
2023-05-03T17:30:59.298Z,15.30
2023-05-03T17:36:04.986Z,15.10
2023-05-03T17:41:11.674Z,15.00
2023-05-03T17:46:14.646Z,14.90
2023-05-03T17:51:17.038Z,14.70
2023-05-03T17:56:19.116Z,14.60
2023-05-03T18:01:21.069Z,14.40
2023-05-03T18:06:23.124Z,14.30
2023-05-03T18:11:26.463Z,14.10
2023-05-03T18:16:28.937Z,14.00
2023-05-03T18:21:30.852Z,13.90
2023-05-03T18:26:32.754Z,13.70
2023-05-03T18:31:34.658Z,13.60
2023-05-03T18:36:36.578Z,13.50
2023-05-03T18:41:38.433Z,13.30
2023-05-03T18:46:40.358Z,13.20
2023-05-03T18:51:42.270Z,13.00
2023-05-03T18:56:44.159Z,12.90
2023-05-03T19:02:21.173Z,12.80
2023-05-03T19:07:23.508Z,12.70
2023-05-03T19:12:25.494Z,12.50
2023-05-03T19:17:28.305Z,12.60
2023-05-03T19:22:30.121Z,12.20
2023-05-03T19:27:32.096Z,12.10
2023-05-03T19:32:39.082Z,12.00
2023-05-03T19:37:42.458Z,11.90
2023-05-03T19:42:44.289Z,11.70
2023-05-03T19:47:46.208Z,11.40
2023-05-03T19:52:52.555Z,11.20
2023-05-03T19:57:54.621Z,11.10
2023-05-03T20:02:57.586Z,11.10
2023-05-03T20:07:59.457Z,11.10
2023-05-03T20:13:02.223Z,11.10
2023-05-03T20:18:04.810Z,11.10
2023-05-03T20:23:06.826Z,11.10
2023-05-03T20:28:09.412Z,11.20
2023-05-03T20:33:11.572Z,11.20
2023-05-03T20:38:16.326Z,11.30
2023-05-03T20:43:18.834Z,11.00
2023-05-03T20:48:20.928Z,10.90
2023-05-03T20:53:22.908Z,11.00
2023-05-03T20:58:24.882Z,10.90
2023-05-03T21:03:26.924Z,10.80
2023-05-03T21:08:28.941Z,11.40
2023-05-03T21:13:35.767Z,10.70
2023-05-03T21:18:38.378Z,10.60
2023-05-03T21:23:40.192Z,10.50
2023-05-03T21:28:42.187Z,10.40
2023-05-03T21:33:44.399Z,10.40
2023-05-03T21:38:46.347Z,10.30
2023-05-03T21:43:49.352Z,10.30
2023-05-03T21:48:51.552Z,10.20
2023-05-03T21:53:53.491Z,10.10
2023-05-03T21:58:55.372Z,10.10
2023-05-03T22:03:57.386Z,10.10
2023-05-03T22:08:59.368Z,10.10
2023-05-03T22:14:07.955Z,10.10
2023-05-03T22:19:10.840Z,10.00
2023-05-03T22:24:12.754Z,9.90
2023-05-03T22:29:14.744Z,9.80
2023-05-03T22:34:16.564Z,9.70
2023-05-03T22:39:18.386Z,9.70
2023-05-03T22:44:20.243Z,9.60
2023-05-03T22:49:22.181Z,9.50
2023-05-03T22:54:24.847Z,9.60
2023-05-03T22:59:26.820Z,9.50
2023-05-03T23:04:28.669Z,9.40
2023-05-03T23:09:30.940Z,9.40
2023-05-03T23:14:32.850Z,9.30
2023-05-03T23:19:35.837Z,9.30
2023-05-03T23:24:39.490Z,9.30
2023-05-03T23:29:41.492Z,9.30
2023-05-03T23:34:43.668Z,9.30
2023-05-03T23:39:45.860Z,9.20
2023-05-03T23:44:55.496Z,9.20
2023-05-03T23:49:58.095Z,9.10
2023-05-03T23:54:59.973Z,9.00
